sensor_id;sensor_type;location;lat;lon;timestamp;temperature;humidity
74540;SHT31;66042;51.090;-115.340;2023-06-24T00:00:02;39.37;11.70
74540;SHT31;66042;51.090;-115.340;2023-06-24T00:02:33;38.09;11.78
74540;SHT31;66042;51.090;-115.340;2023-06-24T00:05:03;37.06;12.15
74540;SHT31;66042;51.090;-115.340;2023-06-24T00:07:32;36.02;11.82
74540;SHT31;66042;51.090;-115.340;2023-06-24T00:10:13;35.14;12.53
74540;SHT31;66042;51.090;-115.340;2023-06-24T00:12:40;34.51;13.29
74540;SHT31;66042;51.090;-115.340;2023-06-24T00:15:08;33.94;14.28
74540;SHT31;66042;51.090;-115.340;2023-06-24T00:17:35;33.37;14.60
74540;SHT31;66042;51.090;-115.340;2023-06-24T00:20:02;32.86;14.35
74540;SHT31;66042;51.090;-115.340;2023-06-24T00:22:32;32.40;14.68
74540;SHT31;66042;51.090;-115.340;2023-06-24T00:24:59;33.22;14.94
74540;SHT31;66042;51.090;-115.340;2023-06-24T00:27:26;35.01;14.26
74540;SHT31;66042;51.090;-115.340;2023-06-24T00:29:53;37.05;12.93
74540;SHT31;66042;51.090;-115.340;2023-06-24T00:32:20;38.84;12.06
74540;SHT31;66042;51.090;-115.340;2023-06-24T00:34:47;40.38;11.76
74540;SHT31;66042;51.090;-115.340;2023-06-24T00:37:15;41.55;11.43
74540;SHT31;66042;51.090;-115.340;2023-06-24T00:39:42;42.59;11.09
74540;SHT31;66042;51.090;-115.340;2023-06-24T00:42:09;42.48;10.87
74540;SHT31;66042;51.090;-115.340;2023-06-24T00:44:36;41.70;10.97
74540;SHT31;66042;51.090;-115.340;2023-06-24T00:47:05;41.40;11.10
74540;SHT31;66042;51.090;-115.340;2023-06-24T00:49:33;40.20;11.41
74540;SHT31;66042;51.090;-115.340;2023-06-24T00:52:00;38.87;11.87
74540;SHT31;66042;51.090;-115.340;2023-06-24T00:54:28;37.63;12.31
74540;SHT31;66042;51.090;-115.340;2023-06-24T00:56:59;36.44;12.82
74540;SHT31;66042;51.090;-115.340;2023-06-24T00:59:26;35.37;13.41
74540;SHT31;66042;51.090;-115.340;2023-06-24T01:01:55;34.41;13.95
74540;SHT31;66042;51.090;-115.340;2023-06-24T01:04:22;33.59;14.43
74540;SHT31;66042;51.090;-115.340;2023-06-24T01:06:50;32.93;15.17
74540;SHT31;66042;51.090;-115.340;2023-06-24T01:09:18;32.53;15.86
74540;SHT31;66042;51.090;-115.340;2023-06-24T01:11:46;32.14;16.30
74540;SHT31;66042;51.090;-115.340;2023-06-24T01:14:13;31.75;16.11
74540;SHT31;66042;51.090;-115.340;2023-06-24T01:22:26;31.39;17.23
74540;SHT31;66042;51.090;-115.340;2023-06-24T01:32:06;32.86;16.54
74540;SHT31;66042;51.090;-115.340;2023-06-24T01:37:29;34.96;15.42
74540;SHT31;66042;51.090;-115.340;2023-06-24T01:40:09;35.56;14.91
74540;SHT31;66042;51.090;-115.340;2023-06-24T01:42:46;35.62;14.90
74540;SHT31;66042;51.090;-115.340;2023-06-24T01:45:25;35.99;14.80
74540;SHT31;66042;51.090;-115.340;2023-06-24T01:48:02;36.16;14.70
74540;SHT31;66042;51.090;-115.340;2023-06-24T01:50:48;36.44;14.70
74540;SHT31;66042;51.090;-115.340;2023-06-24T01:53:26;36.49;14.66
74540;SHT31;66042;51.090;-115.340;2023-06-24T01:55:58;35.95;14.63
74540;SHT31;66042;51.090;-115.340;2023-06-24T01:58:29;35.81;14.92
74540;SHT31;66042;51.090;-115.340;2023-06-24T02:01:00;35.74;14.96
74540;SHT31;66042;51.090;-115.340;2023-06-24T02:03:29;35.12;14.93
74540;SHT31;66042;51.090;-115.340;2023-06-24T02:05:59;34.35;15.66
74540;SHT31;66042;51.090;-115.340;2023-06-24T02:08:32;33.54;15.99
74540;SHT31;66042;51.090;-115.340;2023-06-24T02:11:02;32.71;16.50
74540;SHT31;66042;51.090;-115.340;2023-06-24T02:13:30;31.93;16.97
74540;SHT31;66042;51.090;-115.340;2023-06-24T02:16:01;31.15;17.43
74540;SHT31;66042;51.090;-115.340;2023-06-24T02:18:32;30.51;17.56
74540;SHT31;66042;51.090;-115.340;2023-06-24T02:21:02;29.91;18.15
74540;SHT31;66042;51.090;-115.340;2023-06-24T02:23:31;29.38;18.88
74540;SHT31;66042;51.090;-115.340;2023-06-24T02:26:00;28.93;19.50
74540;SHT31;66042;51.090;-115.340;2023-06-24T02:28:31;28.56;19.69
74540;SHT31;66042;51.090;-115.340;2023-06-24T02:30:59;28.16;19.88
74540;SHT31;66042;51.090;-115.340;2023-06-24T02:33:27;27.79;20.60
74540;SHT31;66042;51.090;-115.340;2023-06-24T02:35:55;27.42;21.13
74540;SHT31;66042;51.090;-115.340;2023-06-24T02:38:22;27.07;21.59
74540;SHT31;66042;51.090;-115.340;2023-06-24T02:40:49;26.79;21.75
74540;SHT31;66042;51.090;-115.340;2023-06-24T02:43:17;26.51;21.97
74540;SHT31;66042;51.090;-115.340;2023-06-24T02:45:45;26.17;22.38
74540;SHT31;66042;51.090;-115.340;2023-06-24T02:48:15;25.87;22.95
74540;SHT31;66042;51.090;-115.340;2023-06-24T02:50:45;25.57;23.20
74540;SHT31;66042;51.090;-115.340;2023-06-24T02:53:14;25.33;23.59
74540;SHT31;66042;51.090;-115.340;2023-06-24T02:55:42;25.14;23.77
74540;SHT31;66042;51.090;-115.340;2023-06-24T02:58:11;24.91;23.96
74540;SHT31;66042;51.090;-115.340;2023-06-24T03:00:39;24.68;24.36
74540;SHT31;66042;51.090;-115.340;2023-06-24T03:03:06;24.53;24.92
74540;SHT31;66042;51.090;-115.340;2023-06-24T03:05:34;24.34;25.04
74540;SHT31;66042;51.090;-115.340;2023-06-24T03:08:02;24.15;25.18
74540;SHT31;66042;51.090;-115.340;2023-06-24T03:10:30;23.98;25.53
74540;SHT31;66042;51.090;-115.340;2023-06-24T03:12:57;23.82;25.67
74540;SHT31;66042;51.090;-115.340;2023-06-24T03:15:24;23.68;25.89
74540;SHT31;66042;51.090;-115.340;2023-06-24T03:17:51;23.47;26.06
74540;SHT31;66042;51.090;-115.340;2023-06-24T03:20:18;23.26;26.29
74540;SHT31;66042;51.090;-115.340;2023-06-24T03:22:45;23.06;26.47
74540;SHT31;66042;51.090;-115.340;2023-06-24T03:25:13;22.90;26.59
74540;SHT31;66042;51.090;-115.340;2023-06-24T03:27:39;22.72;26.99
74540;SHT31;66042;51.090;-115.340;2023-06-24T03:30:07;22.58;27.65
74540;SHT31;66042;51.090;-115.340;2023-06-24T03:32:36;22.43;28.01
74540;SHT31;66042;51.090;-115.340;2023-06-24T03:35:03;22.29;28.35
74540;SHT31;66042;51.090;-115.340;2023-06-24T03:37:32;22.12;28.59
74540;SHT31;66042;51.090;-115.340;2023-06-24T03:39:59;21.96;28.57
74540;SHT31;66042;51.090;-115.340;2023-06-24T03:42:26;21.83;29.07
74540;SHT31;66042;51.090;-115.340;2023-06-24T03:44:54;21.66;29.21
74540;SHT31;66042;51.090;-115.340;2023-06-24T03:47:22;21.53;29.24
74540;SHT31;66042;51.090;-115.340;2023-06-24T03:49:48;21.42;29.12
74540;SHT31;66042;51.090;-115.340;2023-06-24T03:52:16;21.28;29.36
74540;SHT31;66042;51.090;-115.340;2023-06-24T03:54:43;21.18;29.81
74540;SHT31;66042;51.090;-115.340;2023-06-24T03:57:10;21.05;30.20
74540;SHT31;66042;51.090;-115.340;2023-06-24T03:59:38;20.92;30.19
74540;SHT31;66042;51.090;-115.340;2023-06-24T04:02:05;20.81;30.73
74540;SHT31;66042;51.090;-115.340;2023-06-24T04:04:35;20.68;30.84
74540;SHT31;66042;51.090;-115.340;2023-06-24T04:07:02;20.58;30.95
74540;SHT31;66042;51.090;-115.340;2023-06-24T04:09:35;20.46;31.20
74540;SHT31;66042;51.090;-115.340;2023-06-24T04:12:02;20.33;31.54
74540;SHT31;66042;51.090;-115.340;2023-06-24T04:14:29;20.21;31.67
74540;SHT31;66042;51.090;-115.340;2023-06-24T04:16:57;20.13;31.86
74540;SHT31;66042;51.090;-115.340;2023-06-24T04:19:23;20.02;32.54
74540;SHT31;66042;51.090;-115.340;2023-06-24T04:21:50;19.90;33.01
74540;SHT31;66042;51.090;-115.340;2023-06-24T04:24:17;19.79;33.35
74540;SHT31;66042;51.090;-115.340;2023-06-24T04:26:44;19.71;33.36
74540;SHT31;66042;51.090;-115.340;2023-06-24T04:29:11;19.62;33.23
74540;SHT31;66042;51.090;-115.340;2023-06-24T04:31:38;19.53;33.44
74540;SHT31;66042;51.090;-115.340;2023-06-24T04:34:05;19.45;33.65
74540;SHT31;66042;51.090;-115.340;2023-06-24T04:36:32;19.38;34.43
74540;SHT31;66042;51.090;-115.340;2023-06-24T04:39:00;19.29;34.59
74540;SHT31;66042;51.090;-115.340;2023-06-24T04:41:27;19.21;34.72
74540;SHT31;66042;51.090;-115.340;2023-06-24T04:43:54;19.07;35.50
74540;SHT31;66042;51.090;-115.340;2023-06-24T04:46:21;18.92;35.58
74540;SHT31;66042;51.090;-115.340;2023-06-24T04:48:47;18.84;35.70
74540;SHT31;66042;51.090;-115.340;2023-06-24T04:51:14;18.75;35.98
74540;SHT31;66042;51.090;-115.340;2023-06-24T04:53:41;18.66;36.16
74540;SHT31;66042;51.090;-115.340;2023-06-24T04:56:08;18.55;36.64
74540;SHT31;66042;51.090;-115.340;2023-06-24T04:58:35;18.43;37.17
74540;SHT31;66042;51.090;-115.340;2023-06-24T05:01:03;18.26;37.57
74540;SHT31;66042;51.090;-115.340;2023-06-24T05:03:30;18.16;37.49
74540;SHT31;66042;51.090;-115.340;2023-06-24T05:05:57;18.07;37.64
74540;SHT31;66042;51.090;-115.340;2023-06-24T05:08:24;17.95;37.86
74540;SHT31;66042;51.090;-115.340;2023-06-24T05:10:51;17.77;38.51
74540;SHT31;66042;51.090;-115.340;2023-06-24T05:13:18;17.59;38.89
74540;SHT31;66042;51.090;-115.340;2023-06-24T05:15:45;17.51;39.00
74540;SHT31;66042;51.090;-115.340;2023-06-24T05:18:12;17.48;39.10
74540;SHT31;66042;51.090;-115.340;2023-06-24T05:20:39;17.44;39.16
74540;SHT31;66042;51.090;-115.340;2023-06-24T05:23:06;17.36;39.46
74540;SHT31;66042;51.090;-115.340;2023-06-24T05:25:33;17.27;39.54
74540;SHT31;66042;51.090;-115.340;2023-06-24T05:28:00;17.19;39.64
74540;SHT31;66042;51.090;-115.340;2023-06-24T05:30:27;17.10;39.73
74540;SHT31;66042;51.090;-115.340;2023-06-24T05:32:54;17.05;39.63
74540;SHT31;66042;51.090;-115.340;2023-06-24T05:35:21;16.97;39.76
74540;SHT31;66042;51.090;-115.340;2023-06-24T05:37:48;16.88;40.03
74540;SHT31;66042;51.090;-115.340;2023-06-24T05:40:15;16.80;40.02
74540;SHT31;66042;51.090;-115.340;2023-06-24T05:42:43;16.74;40.10
74540;SHT31;66042;51.090;-115.340;2023-06-24T05:45:10;16.66;40.83
74540;SHT31;66042;51.090;-115.340;2023-06-24T05:47:37;16.56;41.38
74540;SHT31;66042;51.090;-115.340;2023-06-24T05:50:04;16.44;41.50
74540;SHT31;66042;51.090;-115.340;2023-06-24T05:52:32;16.35;41.50
74540;SHT31;66042;51.090;-115.340;2023-06-24T05:54:59;16.24;41.87
74540;SHT31;66042;51.090;-115.340;2023-06-24T05:57:26;16.17;42.09
74540;SHT31;66042;51.090;-115.340;2023-06-24T05:59:53;16.10;42.57
74540;SHT31;66042;51.090;-115.340;2023-06-24T06:02:21;16.02;42.74
74540;SHT31;66042;51.090;-115.340;2023-06-24T06:04:48;15.90;42.89
74540;SHT31;66042;51.090;-115.340;2023-06-24T06:07:15;15.76;43.26
74540;SHT31;66042;51.090;-115.340;2023-06-24T06:09:43;15.64;43.55
74540;SHT31;66042;51.090;-115.340;2023-06-24T06:12:10;15.55;43.61
74540;SHT31;66042;51.090;-115.340;2023-06-24T06:14:37;15.50;43.56
74540;SHT31;66042;51.090;-115.340;2023-06-24T06:17:04;15.47;43.51
74540;SHT31;66042;51.090;-115.340;2023-06-24T06:19:31;15.40;43.61
74540;SHT31;66042;51.090;-115.340;2023-06-24T06:21:58;15.34;43.83
74540;SHT31;66042;51.090;-115.340;2023-06-24T06:24:26;15.27;43.82
74540;SHT31;66042;51.090;-115.340;2023-06-24T06:26:53;15.21;43.91
74540;SHT31;66042;51.090;-115.340;2023-06-24T06:29:20;15.11;44.26
74540;SHT31;66042;51.090;-115.340;2023-06-24T06:31:47;15.02;44.87
74540;SHT31;66042;51.090;-115.340;2023-06-24T06:34:14;14.92;45.11
74540;SHT31;66042;51.090;-115.340;2023-06-24T06:36:41;14.89;44.89
74540;SHT31;66042;51.090;-115.340;2023-06-24T06:39:08;14.85;44.95
74540;SHT31;66042;51.090;-115.340;2023-06-24T06:41:35;14.83;44.98
74540;SHT31;66042;51.090;-115.340;2023-06-24T06:44:02;14.71;45.47
74540;SHT31;66042;51.090;-115.340;2023-06-24T06:46:29;14.65;45.54
74540;SHT31;66042;51.090;-115.340;2023-06-24T06:48:56;14.62;45.49
74540;SHT31;66042;51.090;-115.340;2023-06-24T06:51:23;14.52;45.55
74540;SHT31;66042;51.090;-115.340;2023-06-24T06:53:51;14.46;45.93
74540;SHT31;66042;51.090;-115.340;2023-06-24T06:56:24;14.32;46.48
74540;SHT31;66042;51.090;-115.340;2023-06-24T06:58:51;14.27;46.73
74540;SHT31;66042;51.090;-115.340;2023-06-24T07:01:19;14.24;46.69
74540;SHT31;66042;51.090;-115.340;2023-06-24T07:03:46;14.21;46.57
74540;SHT31;66042;51.090;-115.340;2023-06-24T07:06:14;14.17;46.54
74540;SHT31;66042;51.090;-115.340;2023-06-24T07:08:43;14.13;46.93
74540;SHT31;66042;51.090;-115.340;2023-06-24T07:11:10;14.10;47.06
74540;SHT31;66042;51.090;-115.340;2023-06-24T07:13:36;14.06;47.33
74540;SHT31;66042;51.090;-115.340;2023-06-24T07:16:04;14.00;47.51
74540;SHT31;66042;51.090;-115.340;2023-06-24T07:18:31;13.95;47.74
74540;SHT31;66042;51.090;-115.340;2023-06-24T07:20:59;13.90;47.83
74540;SHT31;66042;51.090;-115.340;2023-06-24T07:23:27;13.84;47.91
74540;SHT31;66042;51.090;-115.340;2023-06-24T07:25:55;13.76;48.37
74540;SHT31;66042;51.090;-115.340;2023-06-24T07:28:21;13.69;48.60
74540;SHT31;66042;51.090;-115.340;2023-06-24T07:30:49;13.64;48.48
74540;SHT31;66042;51.090;-115.340;2023-06-24T07:33:16;13.62;48.31
74540;SHT31;66042;51.090;-115.340;2023-06-24T07:35:42;13.60;48.29
74540;SHT31;66042;51.090;-115.340;2023-06-24T07:38:09;13.55;48.39
74540;SHT31;66042;51.090;-115.340;2023-06-24T07:40:37;13.50;48.80
74540;SHT31;66042;51.090;-115.340;2023-06-24T07:43:04;13.42;48.86
74540;SHT31;66042;51.090;-115.340;2023-06-24T07:45:31;13.39;48.86
74540;SHT31;66042;51.090;-115.340;2023-06-24T07:47:58;13.35;48.77
74540;SHT31;66042;51.090;-115.340;2023-06-24T07:50:25;13.33;48.92
74540;SHT31;66042;51.090;-115.340;2023-06-24T07:52:52;13.29;49.23
74540;SHT31;66042;51.090;-115.340;2023-06-24T07:55:19;13.26;49.43
74540;SHT31;66042;51.090;-115.340;2023-06-24T07:57:46;13.22;49.47
74540;SHT31;66042;51.090;-115.340;2023-06-24T08:00:13;13.17;49.64
74540;SHT31;66042;51.090;-115.340;2023-06-24T08:02:41;13.12;50.01
74540;SHT31;66042;51.090;-115.340;2023-06-24T08:05:09;13.05;50.42
74540;SHT31;66042;51.090;-115.340;2023-06-24T08:07:36;13.01;50.34
74540;SHT31;66042;51.090;-115.340;2023-06-24T08:10:04;12.93;50.40
74540;SHT31;66042;51.090;-115.340;2023-06-24T08:12:32;12.88;50.52
74540;SHT31;66042;51.090;-115.340;2023-06-24T08:14:59;12.86;50.72
74540;SHT31;66042;51.090;-115.340;2023-06-24T08:17:26;12.81;50.96
74540;SHT31;66042;51.090;-115.340;2023-06-24T08:19:54;12.75;51.03
74540;SHT31;66042;51.090;-115.340;2023-06-24T08:22:20;12.72;51.18
74540;SHT31;66042;51.090;-115.340;2023-06-24T08:24:48;12.68;51.20
74540;SHT31;66042;51.090;-115.340;2023-06-24T08:27:15;12.67;51.22
74540;SHT31;66042;51.090;-115.340;2023-06-24T08:29:42;12.65;51.37
74540;SHT31;66042;51.090;-115.340;2023-06-24T08:32:09;12.61;51.43
74540;SHT31;66042;51.090;-115.340;2023-06-24T08:34:36;12.58;51.55
74540;SHT31;66042;51.090;-115.340;2023-06-24T08:37:03;12.55;51.74
74540;SHT31;66042;51.090;-115.340;2023-06-24T08:39:30;12.49;51.92
74540;SHT31;66042;51.090;-115.340;2023-06-24T08:41:57;12.45;51.93
74540;SHT31;66042;51.090;-115.340;2023-06-24T08:44:25;12.40;52.21
74540;SHT31;66042;51.090;-115.340;2023-06-24T08:46:52;12.35;52.10
74540;SHT31;66042;51.090;-115.340;2023-06-24T08:52:24;12.28;52.22
74540;SHT31;66042;51.090;-115.340;2023-06-24T08:54:46;12.24;52.27
74540;SHT31;66042;51.090;-115.340;2023-06-24T08:57:16;12.21;52.45
74540;SHT31;66042;51.090;-115.340;2023-06-24T08:59:44;12.16;52.77
74540;SHT31;66042;51.090;-115.340;2023-06-24T09:02:11;12.09;53.20
74540;SHT31;66042;51.090;-115.340;2023-06-24T09:04:39;11.99;53.30
74540;SHT31;66042;51.090;-115.340;2023-06-24T09:07:07;11.96;53.32
74540;SHT31;66042;51.090;-115.340;2023-06-24T09:09:41;11.95;53.24
74540;SHT31;66042;51.090;-115.340;2023-06-24T09:12:13;11.94;53.53
74540;SHT31;66042;51.090;-115.340;2023-06-24T09:14:41;11.90;53.78
74540;SHT31;66042;51.090;-115.340;2023-06-24T09:17:14;11.89;53.77
74540;SHT31;66042;51.090;-115.340;2023-06-24T09:19:41;11.88;53.89
74540;SHT31;66042;51.090;-115.340;2023-06-24T09:22:09;11.85;53.92
74540;SHT31;66042;51.090;-115.340;2023-06-24T09:24:43;11.81;54.15
74540;SHT31;66042;51.090;-115.340;2023-06-24T09:27:13;11.77;54.23
74540;SHT31;66042;51.090;-115.340;2023-06-24T09:29:42;11.74;54.21
74540;SHT31;66042;51.090;-115.340;2023-06-24T09:32:09;11.71;54.31
74540;SHT31;66042;51.090;-115.340;2023-06-24T09:34:37;11.69;54.27
74540;SHT31;66042;51.090;-115.340;2023-06-24T09:37:04;11.67;54.37
74540;SHT31;66042;51.090;-115.340;2023-06-24T09:39:36;11.63;54.38
74540;SHT31;66042;51.090;-115.340;2023-06-24T09:42:06;11.62;54.45
74540;SHT31;66042;51.090;-115.340;2023-06-24T09:44:33;11.62;54.41
74540;SHT31;66042;51.090;-115.340;2023-06-24T09:47:01;11.60;54.68
74540;SHT31;66042;51.090;-115.340;2023-06-24T09:49:28;11.56;54.95
74540;SHT31;66042;51.090;-115.340;2023-06-24T09:51:56;11.49;54.91
74540;SHT31;66042;51.090;-115.340;2023-06-24T09:54:25;11.46;54.77
74540;SHT31;66042;51.090;-115.340;2023-06-24T09:56:54;11.44;54.73
74540;SHT31;66042;51.090;-115.340;2023-06-24T09:59:26;11.43;54.85
74540;SHT31;66042;51.090;-115.340;2023-06-24T10:01:58;11.40;54.96
74540;SHT31;66042;51.090;-115.340;2023-06-24T10:04:28;11.35;55.01
74540;SHT31;66042;51.090;-115.340;2023-06-24T10:06:56;11.34;54.93
74540;SHT31;66042;51.090;-115.340;2023-06-24T10:09:25;11.33;54.89
74540;SHT31;66042;51.090;-115.340;2023-06-24T10:11:51;11.32;54.75
74540;SHT31;66042;51.090;-115.340;2023-06-24T10:14:19;11.31;54.64
74540;SHT31;66042;51.090;-115.340;2023-06-24T10:16:46;11.29;54.56
74540;SHT31;66042;51.090;-115.340;2023-06-24T10:19:18;11.26;54.56
74540;SHT31;66042;51.090;-115.340;2023-06-24T10:21:52;11.23;54.57
74540;SHT31;66042;51.090;-115.340;2023-06-24T10:24:31;11.19;54.55
74540;SHT31;66042;51.090;-115.340;2023-06-24T10:27:03;11.13;54.73
74540;SHT31;66042;51.090;-115.340;2023-06-24T10:29:37;11.13;54.58
74540;SHT31;66042;51.090;-115.340;2023-06-24T10:32:05;11.12;54.61
74540;SHT31;66042;51.090;-115.340;2023-06-24T10:34:39;11.12;54.58
74540;SHT31;66042;51.090;-115.340;2023-06-24T10:37:08;11.07;54.84
74540;SHT31;66042;51.090;-115.340;2023-06-24T10:39:40;11.04;54.85
74540;SHT31;66042;51.090;-115.340;2023-06-24T10:47:39;11.01;54.43
74540;SHT31;66042;51.090;-115.340;2023-06-24T10:50:09;11.01;54.35
74540;SHT31;66042;51.090;-115.340;2023-06-24T10:52:39;10.99;54.30
74540;SHT31;66042;51.090;-115.340;2023-06-24T10:55:14;10.94;54.72
74540;SHT31;66042;51.090;-115.340;2023-06-24T10:57:43;10.80;55.01
74540;SHT31;66042;51.090;-115.340;2023-06-24T11:00:11;10.77;55.01
74540;SHT31;66042;51.090;-115.340;2023-06-24T11:02:41;10.78;54.96
74540;SHT31;66042;51.090;-115.340;2023-06-24T11:05:10;10.79;55.19
74540;SHT31;66042;51.090;-115.340;2023-06-24T11:07:37;10.78;55.24
74540;SHT31;66042;51.090;-115.340;2023-06-24T11:10:06;10.73;55.13
74540;SHT31;66042;51.090;-115.340;2023-06-24T11:12:38;10.76;55.10
74540;SHT31;66042;51.090;-115.340;2023-06-24T11:15:09;10.77;55.37
74540;SHT31;66042;51.090;-115.340;2023-06-24T11:17:39;10.77;55.36
74540;SHT31;66042;51.090;-115.340;2023-06-24T11:20:11;10.77;55.08
74540;SHT31;66042;51.090;-115.340;2023-06-24T11:22:39;10.77;54.96
74540;SHT31;66042;51.090;-115.340;2023-06-24T11:25:20;10.78;54.84
74540;SHT31;66042;51.090;-115.340;2023-06-24T11:27:51;10.77;54.82
74540;SHT31;66042;51.090;-115.340;2023-06-24T11:30:21;10.77;54.77
74540;SHT31;66042;51.090;-115.340;2023-06-24T11:32:48;10.77;54.92
74540;SHT31;66042;51.090;-115.340;2023-06-24T11:35:15;10.75;54.79
74540;SHT31;66042;51.090;-115.340;2023-06-24T11:37:45;10.74;54.88
74540;SHT31;66042;51.090;-115.340;2023-06-24T11:40:13;10.69;55.26
74540;SHT31;66042;51.090;-115.340;2023-06-24T11:42:44;10.67;55.41
74540;SHT31;66042;51.090;-115.340;2023-06-24T11:45:13;10.65;55.44
74540;SHT31;66042;51.090;-115.340;2023-06-24T11:47:45;10.62;55.41
74540;SHT31;66042;51.090;-115.340;2023-06-24T11:50:14;10.61;55.47
74540;SHT31;66042;51.090;-115.340;2023-06-24T11:52:42;10.58;55.54
74540;SHT31;66042;51.090;-115.340;2023-06-24T11:55:24;10.55;55.67
74540;SHT31;66042;51.090;-115.340;2023-06-24T12:00:32;10.47;55.62
74540;SHT31;66042;51.090;-115.340;2023-06-24T12:03:08;10.45;55.62
74540;SHT31;66042;51.090;-115.340;2023-06-24T12:05:37;10.44;55.65
74540;SHT31;66042;51.090;-115.340;2023-06-24T12:08:11;10.40;55.79
74540;SHT31;66042;51.090;-115.340;2023-06-24T12:10:40;10.39;55.73
74540;SHT31;66042;51.090;-115.340;2023-06-24T12:13:09;10.40;55.79
74540;SHT31;66042;51.090;-115.340;2023-06-24T12:15:36;10.40;55.90
74540;SHT31;66042;51.090;-115.340;2023-06-24T12:18:03;10.40;56.12
74540;SHT31;66042;51.090;-115.340;2023-06-24T12:20:31;10.36;55.97
74540;SHT31;66042;51.090;-115.340;2023-06-24T12:22:59;10.34;56.02
74540;SHT31;66042;51.090;-115.340;2023-06-24T12:25:26;10.30;56.21
74540;SHT31;66042;51.090;-115.340;2023-06-24T12:27:53;10.29;56.24
74540;SHT31;66042;51.090;-115.340;2023-06-24T12:30:21;10.30;56.12
74540;SHT31;66042;51.090;-115.340;2023-06-24T12:32:51;10.28;56.71
74540;SHT31;66042;51.090;-115.340;2023-06-24T12:35:18;10.20;56.90
74540;SHT31;66042;51.090;-115.340;2023-06-24T12:37:45;10.18;57.10
74540;SHT31;66042;51.090;-115.340;2023-06-24T12:40:13;10.17;57.06
74540;SHT31;66042;51.090;-115.340;2023-06-24T12:42:40;10.14;57.41
74540;SHT31;66042;51.090;-115.340;2023-06-24T12:45:07;10.09;57.73
74540;SHT31;66042;51.090;-115.340;2023-06-24T12:47:34;9.98;58.04
74540;SHT31;66042;51.090;-115.340;2023-06-24T12:50:01;9.95;57.96
74540;SHT31;66042;51.090;-115.340;2023-06-24T12:52:32;9.97;57.88
74540;SHT31;66042;51.090;-115.340;2023-06-24T12:55:00;10.00;57.80
74540;SHT31;66042;51.090;-115.340;2023-06-24T12:57:29;9.94;58.32
74540;SHT31;66042;51.090;-115.340;2023-06-24T12:59:55;9.90;58.43
74540;SHT31;66042;51.090;-115.340;2023-06-24T13:02:22;9.90;58.40
74540;SHT31;66042;51.090;-115.340;2023-06-24T13:04:49;9.93;58.36
74540;SHT31;66042;51.090;-115.340;2023-06-24T13:07:17;9.97;58.22
74540;SHT31;66042;51.090;-115.340;2023-06-24T13:09:44;9.98;57.97
74540;SHT31;66042;51.090;-115.340;2023-06-24T13:12:11;10.03;57.66
74540;SHT31;66042;51.090;-115.340;2023-06-24T13:14:38;10.04;57.63
74540;SHT31;66042;51.090;-115.340;2023-06-24T13:17:05;10.05;57.67
74540;SHT31;66042;51.090;-115.340;2023-06-24T13:19:32;10.05;57.62
74540;SHT31;66042;51.090;-115.340;2023-06-24T13:21:58;10.08;57.40
74540;SHT31;66042;51.090;-115.340;2023-06-24T13:24:25;10.10;57.47
74540;SHT31;66042;51.090;-115.340;2023-06-24T13:26:53;10.11;57.44
74540;SHT31;66042;51.090;-115.340;2023-06-24T13:29:20;10.11;57.68
74540;SHT31;66042;51.090;-115.340;2023-06-24T13:31:47;10.04;58.17
74540;SHT31;66042;51.090;-115.340;2023-06-24T13:34:14;10.04;58.24
74540;SHT31;66042;51.090;-115.340;2023-06-24T13:36:42;10.08;58.10
74540;SHT31;66042;51.090;-115.340;2023-06-24T13:39:09;10.13;58.13
74540;SHT31;66042;51.090;-115.340;2023-06-24T13:41:41;10.19;58.17
74540;SHT31;66042;51.090;-115.340;2023-06-24T13:44:10;10.26;57.87
74540;SHT31;66042;51.090;-115.340;2023-06-24T13:46:37;10.32;57.83
74540;SHT31;66042;51.090;-115.340;2023-06-24T13:49:04;10.28;58.20
74540;SHT31;66042;51.090;-115.340;2023-06-24T13:51:30;10.30;58.38
74540;SHT31;66042;51.090;-115.340;2023-06-24T13:53:58;10.31;58.71
74540;SHT31;66042;51.090;-115.340;2023-06-24T13:56:25;10.34;58.77
74540;SHT31;66042;51.090;-115.340;2023-06-24T13:58:53;10.37;58.63
74540;SHT31;66042;51.090;-115.340;2023-06-24T14:01:20;10.40;58.89
74540;SHT31;66042;51.090;-115.340;2023-06-24T14:03:48;10.43;59.04
74540;SHT31;66042;51.090;-115.340;2023-06-24T14:06:18;10.46;59.15
74540;SHT31;66042;51.090;-115.340;2023-06-24T14:08:46;10.51;59.46
74540;SHT31;66042;51.090;-115.340;2023-06-24T14:11:14;10.57;59.34
74540;SHT31;66042;51.090;-115.340;2023-06-24T14:13:42;10.63;59.13
74540;SHT31;66042;51.090;-115.340;2023-06-24T14:16:10;10.69;59.09
74540;SHT31;66042;51.090;-115.340;2023-06-24T14:18:37;10.75;58.56
74540;SHT31;66042;51.090;-115.340;2023-06-24T14:21:05;10.82;58.66
74540;SHT31;66042;51.090;-115.340;2023-06-24T14:23:33;10.89;58.59
74540;SHT31;66042;51.090;-115.340;2023-06-24T14:26:01;10.97;58.92
74540;SHT31;66042;51.090;-115.340;2023-06-24T14:28:28;11.04;58.87
74540;SHT31;66042;51.090;-115.340;2023-06-24T14:30:55;11.12;58.74
74540;SHT31;66042;51.090;-115.340;2023-06-24T14:33:22;11.17;58.55
74540;SHT31;66042;51.090;-115.340;2023-06-24T14:35:49;11.24;58.66
74540;SHT31;66042;51.090;-115.340;2023-06-24T14:38:16;11.32;58.42
74540;SHT31;66042;51.090;-115.340;2023-06-24T14:40:43;11.38;58.21
74540;SHT31;66042;51.090;-115.340;2023-06-24T14:43:10;11.45;58.29
74540;SHT31;66042;51.090;-115.340;2023-06-24T14:45:36;11.54;58.03
74540;SHT31;66042;51.090;-115.340;2023-06-24T14:48:03;11.61;57.60
74540;SHT31;66042;51.090;-115.340;2023-06-24T14:50:30;11.69;57.36
74540;SHT31;66042;51.090;-115.340;2023-06-24T14:52:57;11.76;57.46
74540;SHT31;66042;51.090;-115.340;2023-06-24T14:55:24;11.81;57.12
74540;SHT31;66042;51.090;-115.340;2023-06-24T14:57:52;11.87;56.99
74540;SHT31;66042;51.090;-115.340;2023-06-24T15:00:19;11.93;56.83
74540;SHT31;66042;51.090;-115.340;2023-06-24T15:02:46;12.00;57.22
74540;SHT31;66042;51.090;-115.340;2023-06-24T15:05:13;12.10;56.91
74540;SHT31;66042;51.090;-115.340;2023-06-24T15:07:40;12.19;56.84
74540;SHT31;66042;51.090;-115.340;2023-06-24T15:10:07;12.30;56.73
74540;SHT31;66042;51.090;-115.340;2023-06-24T15:12:34;12.38;56.47
74540;SHT31;66042;51.090;-115.340;2023-06-24T15:15:01;12.47;56.09
74540;SHT31;66042;51.090;-115.340;2023-06-24T15:17:28;12.54;55.56
74540;SHT31;66042;51.090;-115.340;2023-06-24T15:19:55;12.63;55.53